createdAt,value
2022-09-22T00:01:22.945Z,158.18
2022-09-22T00:03:53.954Z,129.00
2022-09-22T00:06:24.766Z,162.88
2022-09-22T00:09:00.818Z,162.13
2022-09-22T00:11:31.493Z,161.25
2022-09-22T00:14:01.811Z,165.88
2022-09-22T00:16:42.460Z,160.75
2022-09-22T00:19:13.425Z,159.95
2022-09-22T00:21:41.870Z,160.85
2022-09-22T00:24:09.355Z,160.23
2022-09-22T00:26:45.680Z,158.05
2022-09-22T00:29:13.814Z,156.43
2022-09-22T00:31:42.675Z,154.32
2022-09-22T00:34:18.463Z,158.93
2022-09-22T00:36:46.707Z,158.10
2022-09-22T00:39:15.265Z,160.65
2022-09-22T00:41:46.525Z,160.20
2022-09-22T00:44:36.766Z,159.10
2022-09-22T00:47:27.433Z,158.02
2022-09-22T00:50:23.539Z,156.52
2022-09-22T00:52:52.541Z,157.63
2022-09-22T00:55:29.046Z,154.15
2022-09-22T00:57:57.701Z,156.00
2022-09-22T01:00:24.986Z,159.52
2022-09-22T01:03:00.930Z,160.45
2022-09-22T01:05:34.006Z,157.82
2022-09-22T01:08:02.462Z,158.30
2022-09-22T01:10:35.971Z,156.25
2022-09-22T01:13:11.111Z,156.43
2022-09-22T01:15:53.259Z,156.38
2022-09-22T01:18:48.438Z,155.98
2022-09-22T01:21:43.400Z,158.10
2022-09-22T01:24:23.299Z,155.93
2022-09-22T01:27:35.338Z,158.52
2022-09-22T01:30:20.306Z,157.40
2022-09-22T01:33:05.522Z,158.32
2022-09-22T01:35:38.807Z,157.88
2022-09-22T01:38:30.363Z,154.45
2022-09-22T01:41:07.257Z,154.77
2022-09-22T01:43:42.057Z,157.50
2022-09-22T01:46:32.432Z,154.55
2022-09-22T01:49:05.908Z,155.35
2022-09-22T01:54:21.417Z,155.60
2022-09-22T01:56:54.234Z,156.80
2022-09-22T01:59:26.121Z,156.25
2022-09-22T02:02:03.534Z,156.27
2022-09-22T02:04:45.868Z,154.18
2022-09-22T02:07:24.863Z,156.57
2022-09-22T02:09:58.481Z,159.65
2022-09-22T02:12:26.156Z,157.15
2022-09-22T02:14:53.640Z,158.73
2022-09-22T02:17:21.315Z,157.80
2022-09-22T02:19:49.026Z,159.05
2022-09-22T02:22:16.512Z,157.20
2022-09-22T02:24:45.998Z,158.95
2022-09-22T02:27:25.925Z,158.13
2022-09-22T02:30:04.851Z,157.07
2022-09-22T02:32:36.220Z,156.32
2022-09-22T02:35:04.525Z,159.00
2022-09-22T02:38:06.373Z,160.18
2022-09-22T02:40:45.051Z,159.77
2022-09-22T02:43:37.842Z,155.68
2022-09-22T02:46:11.587Z,154.32
2022-09-22T02:48:44.355Z,155.70
2022-09-22T02:51:14.151Z,157.00
2022-09-22T02:53:41.524Z,157.85
2022-09-22T02:56:09.318Z,158.05
2022-09-22T02:58:37.023Z,159.90
2022-09-22T03:01:04.876Z,160.30
2022-09-22T03:03:32.259Z,158.10
2022-09-22T03:05:59.707Z,158.70
2022-09-22T03:08:26.958Z,163.45
2022-09-22T03:10:54.738Z,163.40
2022-09-22T03:13:22.111Z,162.32
2022-09-22T03:15:49.999Z,161.18
2022-09-22T03:18:17.287Z,160.88
2022-09-22T03:20:44.948Z,160.40
2022-09-22T03:23:12.310Z,163.15
2022-09-22T03:25:39.761Z,163.90
2022-09-22T03:28:06.991Z,161.60
2022-09-22T03:30:35.943Z,145.27
2022-09-22T03:33:03.757Z,135.70
2022-09-22T03:35:31.153Z,126.47
2022-09-22T03:37:58.412Z,126.75
2022-09-22T03:40:26.051Z,126.75
2022-09-22T03:42:53.333Z,130.30
2022-09-22T03:45:21.009Z,128.82
2022-09-22T03:47:48.479Z,126.88
2022-09-22T03:50:15.883Z,126.57
2022-09-22T03:52:45.097Z,126.72
2022-09-22T03:55:12.794Z,127.38
2022-09-22T03:57:41.057Z,127.50
2022-09-22T04:00:09.125Z,130.43
2022-09-22T04:02:42.346Z,146.90
2022-09-22T04:05:10.496Z,166.35
2022-09-22T04:07:37.979Z,166.70
2022-09-22T04:10:06.088Z,167.10
2022-09-22T04:12:33.807Z,168.35
2022-09-22T04:15:01.185Z,168.38
2022-09-22T04:17:29.417Z,168.35
2022-09-22T04:19:57.428Z,168.02
2022-09-22T04:22:24.751Z,167.60
2022-09-22T04:24:52.191Z,168.65
2022-09-22T04:27:20.607Z,169.48
2022-09-22T04:29:48.896Z,168.07
2022-09-22T04:32:17.445Z,169.10
2022-09-22T04:34:45.345Z,168.70
2022-09-22T04:37:13.706Z,167.65
2022-09-22T04:39:41.159Z,169.80
2022-09-22T04:42:11.165Z,169.57
2022-09-22T04:44:38.578Z,169.50
2022-09-22T04:47:06.037Z,170.07
2022-09-22T04:49:33.313Z,171.80
2022-09-22T04:52:00.608Z,174.95
2022-09-22T04:54:28.084Z,172.15
2022-09-22T04:56:55.454Z,173.52
2022-09-22T04:59:23.104Z,174.52
2022-09-22T05:01:50.509Z,127.70
2022-09-22T05:04:18.359Z,80.72
2022-09-22T05:06:45.684Z,76.10
2022-09-22T05:09:13.385Z,106.82
2022-09-22T05:11:40.634Z,79.18
2022-09-22T05:14:08.266Z,124.45
2022-09-22T05:16:35.775Z,118.72
2022-09-22T05:19:03.237Z,76.63
2022-09-22T05:21:30.541Z,71.70
2022-09-22T05:23:58.038Z,50.38
2022-09-22T05:26:25.964Z,55.00
2022-09-22T05:28:53.472Z,168.85
2022-09-22T05:31:20.840Z,146.38
2022-09-22T05:33:48.232Z,146.02
2022-09-22T05:36:15.648Z,148.50
2022-09-22T05:38:43.397Z,175.68
2022-09-22T05:41:10.749Z,161.57
2022-09-22T05:43:38.056Z,140.63
2022-09-22T05:46:05.593Z,140.90
2022-09-22T05:48:33.208Z,141.57
2022-09-22T05:51:00.792Z,140.05
2022-09-22T05:53:28.528Z,135.55
2022-09-22T05:55:57.232Z,135.23
2022-09-22T05:58:24.596Z,137.60
2022-09-22T06:00:52.251Z,137.43
2022-09-22T06:03:19.858Z,137.25
2022-09-22T06:05:47.169Z,148.13
2022-09-22T06:08:14.671Z,163.85
2022-09-22T06:10:42.735Z,165.00
2022-09-22T06:13:11.401Z,164.48
2022-09-22T06:15:39.630Z,157.13
2022-09-22T06:18:13.093Z,153.40
2022-09-22T06:20:41.334Z,157.32
2022-09-22T06:23:09.196Z,158.02
2022-09-22T06:25:36.558Z,161.75
2022-09-22T06:28:06.535Z,156.55
2022-09-22T06:30:35.845Z,153.73
2022-09-22T06:33:03.762Z,134.30
2022-09-22T06:35:36.896Z,330.58
2022-09-22T06:38:07.156Z,221.10
2022-09-22T06:40:39.111Z,230.48
2022-09-22T06:43:13.051Z,323.60
2022-09-22T06:45:42.901Z,231.43
2022-09-22T06:48:11.417Z,330.48
2022-09-22T06:50:41.202Z,226.57
2022-09-22T06:53:14.053Z,18.38
2022-09-22T06:55:44.497Z,17.50
2022-09-22T06:58:13.134Z,13.93
2022-09-22T07:00:43.197Z,15.05
2022-09-22T07:03:22.782Z,14.18
2022-09-22T07:05:58.479Z,17.17
2022-09-22T07:08:26.271Z,15.77
2022-09-22T07:10:55.563Z,15.98
2022-09-22T07:13:24.302Z,13.30
2022-09-22T07:15:51.723Z,17.90
2022-09-22T07:18:19.052Z,16.63
2022-09-22T07:20:46.384Z,11.13
2022-09-22T07:23:19.216Z,14.57
2022-09-22T07:25:59.623Z,11.27
2022-09-22T07:28:31.679Z,11.10
2022-09-22T07:31:15.545Z,12.88
2022-09-22T07:33:45.004Z,13.63
2022-09-22T07:36:22.913Z,11.43
2022-09-22T07:38:52.520Z,16.10
2022-09-22T07:41:28.090Z,14.38
2022-09-22T07:44:18.148Z,12.60
2022-09-22T07:46:46.249Z,12.65
2022-09-22T07:49:15.367Z,12.23
2022-09-22T07:51:43.167Z,15.32
2022-09-22T07:54:11.150Z,10.73
2022-09-22T07:56:43.874Z,12.98
2022-09-22T07:59:13.735Z,13.55
2022-09-22T08:01:47.737Z,8.20
2022-09-22T08:04:18.983Z,11.55
2022-09-22T08:06:48.845Z,12.07
2022-09-22T08:09:16.423Z,9.52
2022-09-22T08:11:46.150Z,9.98
2022-09-22T08:14:13.393Z,11.10
2022-09-22T08:16:41.378Z,9.52
2022-09-22T08:19:12.804Z,13.15
2022-09-22T08:21:48.473Z,12.65
2022-09-22T08:24:21.808Z,8.23
2022-09-22T08:26:51.333Z,10.70
2022-09-22T08:29:18.692Z,9.57
2022-09-22T08:31:47.684Z,327.05
2022-09-22T08:34:16.701Z,8.90
2022-09-22T08:36:46.666Z,7.60
2022-09-22T08:39:14.677Z,11.63
2022-09-22T08:42:08.642Z,8.00
2022-09-22T08:47:06.075Z,9.65
2022-09-22T08:50:12.027Z,12.05
2022-09-22T08:52:43.399Z,9.50
2022-09-22T08:55:25.345Z,9.32
2022-09-22T08:58:09.864Z,10.45
2022-09-22T09:00:42.979Z,12.77
2022-09-22T09:03:25.411Z,8.63
2022-09-22T09:06:15.822Z,9.10
2022-09-22T09:09:18.999Z,9.00
2022-09-22T09:11:58.309Z,7.45
2022-09-22T09:14:52.359Z,10.02
2022-09-22T09:20:09.347Z,8.73
2022-09-22T09:22:45.113Z,8.60
2022-09-22T09:25:42.763Z,10.13
2022-09-22T09:28:18.912Z,8.05
2022-09-22T09:30:51.995Z,7.05
2022-09-22T09:34:14.869Z,8.32
2022-09-22T09:36:46.034Z,7.50
2022-09-22T09:39:17.132Z,7.88
2022-09-22T09:41:47.055Z,12.45
2022-09-22T09:44:39.190Z,9.30
2022-09-22T09:47:18.555Z,7.70
2022-09-22T09:49:52.544Z,14.80
2022-09-22T09:52:21.198Z,9.52
2022-09-22T09:54:49.275Z,13.45
2022-09-22T09:57:27.651Z,11.38
2022-09-22T10:00:33.777Z,7.63
2022-09-22T10:03:26.994Z,9.75
2022-09-22T10:06:03.079Z,6.13
2022-09-22T10:08:41.771Z,7.43
2022-09-22T10:11:10.610Z,6.78
2022-09-22T10:13:39.775Z,6.55
2022-09-22T10:16:21.647Z,8.60
2022-09-22T10:18:58.926Z,7.53
2022-09-22T10:21:28.408Z,6.65
2022-09-22T10:23:57.506Z,7.30
2022-09-22T10:26:30.497Z,13.27
2022-09-22T10:29:13.520Z,212.48
2022-09-22T10:31:42.375Z,330.88
2022-09-22T10:34:31.844Z,7.18
2022-09-22T10:37:04.049Z,8.82
2022-09-22T10:39:46.189Z,6.43
2022-09-22T10:42:29.259Z,6.35
2022-09-22T10:45:02.854Z,327.50
2022-09-22T10:50:27.980Z,7.25
2022-09-22T10:53:31.421Z,7.57
2022-09-22T10:56:10.737Z,10.40
2022-09-22T10:58:41.098Z,8.88
2022-09-22T11:01:18.852Z,15.68
2022-09-22T11:04:12.804Z,27.63
2022-09-22T11:07:32.858Z,9.65
2022-09-22T11:10:59.699Z,6.60
2022-09-22T11:13:57.676Z,236.27
2022-09-22T11:16:49.360Z,10.10
2022-09-22T11:19:48.479Z,8.07
2022-09-22T11:22:34.239Z,7.28
2022-09-22T11:25:28.818Z,316.63
2022-09-22T11:28:11.280Z,222.88
2022-09-22T11:30:46.914Z,328.95
2022-09-22T11:33:33.709Z,9.88
2022-09-22T11:36:11.854Z,7.82
2022-09-22T11:39:00.035Z,5.85
2022-09-22T11:41:27.353Z,8.40
2022-09-22T11:43:59.168Z,7.68
2022-09-22T11:46:55.395Z,8.32
2022-09-22T11:49:43.161Z,8.20
2022-09-22T11:52:22.758Z,8.85
2022-09-22T11:55:23.636Z,11.13
2022-09-22T11:57:57.111Z,18.75
2022-09-22T12:00:25.038Z,9.40
2022-09-22T12:03:10.622Z,8.68
2022-09-22T12:05:54.810Z,113.03
2022-09-22T12:08:29.071Z,169.95
2022-09-22T12:10:57.358Z,174.43
2022-09-22T12:13:27.546Z,171.95
2022-09-22T12:16:18.731Z,27.45
2022-09-22T12:19:30.808Z,7.20
2022-09-22T12:22:12.605Z,348.90
2022-09-22T12:24:40.069Z,9.73
2022-09-22T12:27:12.992Z,341.88
2022-09-22T12:29:41.737Z,9.90
2022-09-22T12:32:25.214Z,11.05
2022-09-22T12:34:56.362Z,135.98
2022-09-22T12:37:34.212Z,191.25
2022-09-22T12:40:07.594Z,79.85
2022-09-22T12:45:34.856Z,162.30
2022-09-22T12:48:29.127Z,54.70
2022-09-22T12:51:30.486Z,165.13
2022-09-22T12:54:23.915Z,161.95
2022-09-22T12:57:00.476Z,147.15
2022-09-22T13:00:06.780Z,170.07
2022-09-22T13:02:43.267Z,87.60
2022-09-22T13:05:10.607Z,141.07
2022-09-22T13:07:42.952Z,129.07
2022-09-22T13:10:25.290Z,142.88
2022-09-22T13:13:06.075Z,175.68
2022-09-22T13:15:51.350Z,128.65
2022-09-22T13:18:30.156Z,114.55
2022-09-22T13:20:59.121Z,60.25
2022-09-22T13:23:27.290Z,37.67
2022-09-22T13:25:55.356Z,44.83
2022-09-22T13:28:25.506Z,235.80
2022-09-22T13:31:17.395Z,187.75
2022-09-22T13:33:45.127Z,133.73
2022-09-22T13:36:18.215Z,137.32
2022-09-22T13:38:51.498Z,163.20
2022-09-22T13:41:24.183Z,161.15
2022-09-22T13:44:02.902Z,147.77
2022-09-22T13:46:39.576Z,127.13
2022-09-22T13:49:10.731Z,132.45
2022-09-22T13:51:38.692Z,37.75
2022-09-22T13:54:07.433Z,23.50
2022-09-22T13:56:36.498Z,29.65
2022-09-22T13:59:03.971Z,11.13
2022-09-22T14:01:31.423Z,142.23
2022-09-22T14:03:58.873Z,150.15
2022-09-22T14:06:30.837Z,153.65
2022-09-22T14:08:59.330Z,293.33
2022-09-22T14:11:33.704Z,58.70
2022-09-22T14:14:02.859Z,62.28
2022-09-22T14:16:36.509Z,52.50
2022-09-22T14:19:15.390Z,70.55
2022-09-22T14:21:51.624Z,168.15
2022-09-22T14:24:19.328Z,167.40
2022-09-22T14:26:50.161Z,149.10
2022-09-22T14:29:30.160Z,170.30
2022-09-22T14:32:13.241Z,163.80
2022-09-22T14:34:45.894Z,165.35
2022-09-22T14:37:31.880Z,167.05
2022-09-22T14:40:04.943Z,167.13
2022-09-22T14:42:34.141Z,169.27
2022-09-22T14:45:10.342Z,167.18
2022-09-22T14:47:42.811Z,170.98
2022-09-22T14:50:12.201Z,174.63
2022-09-22T14:53:02.582Z,172.05
2022-09-22T14:55:36.810Z,175.15
2022-09-22T14:58:08.515Z,172.85
2022-09-22T15:00:55.449Z,172.02
2022-09-22T15:03:29.261Z,177.07
2022-09-22T15:06:07.850Z,176.38
2022-09-22T15:08:36.106Z,174.95
2022-09-22T15:11:03.807Z,136.23
2022-09-22T15:13:50.975Z,173.70
2022-09-22T15:16:37.894Z,176.77
2022-09-22T15:19:06.299Z,169.32
2022-09-22T15:21:38.079Z,174.05
2022-09-22T15:24:06.169Z,177.00
2022-09-22T15:26:33.840Z,174.95
2022-09-22T15:29:02.840Z,155.07
2022-09-22T15:31:30.918Z,126.80
2022-09-22T15:34:01.568Z,65.03
2022-09-22T15:36:32.193Z,121.57
2022-09-22T15:39:20.825Z,116.53
2022-09-22T15:41:48.560Z,104.75
2022-09-22T15:44:16.787Z,94.00
2022-09-22T15:46:48.456Z,132.32
2022-09-22T15:49:21.113Z,93.30
2022-09-22T15:51:49.671Z,113.40
2022-09-22T15:54:22.399Z,145.45
2022-09-22T15:56:52.251Z,115.15
2022-09-22T15:59:22.920Z,145.52
2022-09-22T16:01:52.054Z,98.50
2022-09-22T16:04:20.325Z,71.63
2022-09-22T16:06:58.703Z,102.90
2022-09-22T16:09:26.206Z,36.03
2022-09-22T16:11:55.083Z,36.75
2022-09-22T16:14:25.255Z,282.13
2022-09-22T16:16:52.795Z,161.43
2022-09-22T16:19:20.505Z,12.13
2022-09-22T16:21:54.334Z,6.68
2022-09-22T16:24:22.862Z,14.18
2022-09-22T16:26:51.953Z,13.88
2022-09-22T16:29:19.471Z,10.23
2022-09-22T16:31:47.014Z,13.57
2022-09-22T16:34:14.498Z,8.68
2022-09-22T16:36:44.725Z,7.32
2022-09-22T16:39:12.091Z,10.63
2022-09-22T16:41:44.729Z,15.10
2022-09-22T16:44:12.234Z,7.30
2022-09-22T16:46:39.596Z,8.57
2022-09-22T16:49:13.052Z,8.15
2022-09-22T16:54:13.336Z,8.63
2022-09-22T16:56:43.642Z,13.35
2022-09-22T16:59:14.492Z,6.40
2022-09-22T17:01:43.968Z,6.80
2022-09-22T17:04:13.607Z,21.00
2022-09-22T17:06:41.830Z,10.50
2022-09-22T17:09:10.579Z,25.13
2022-09-22T17:11:40.781Z,15.02
2022-09-22T17:14:12.816Z,11.13
2022-09-22T17:16:42.784Z,8.13
2022-09-22T17:19:12.639Z,9.07
2022-09-22T17:21:40.446Z,11.73
2022-09-22T17:24:09.299Z,13.23
2022-09-22T17:26:41.519Z,11.48
2022-09-22T17:29:10.031Z,9.23
2022-09-22T17:31:37.433Z,7.50
2022-09-22T17:34:04.866Z,9.85
2022-09-22T17:36:32.188Z,7.95
2022-09-22T17:39:01.070Z,8.88
2022-09-22T17:41:32.888Z,7.47
2022-09-22T17:44:03.288Z,9.73
2022-09-22T17:46:35.407Z,9.68
2022-09-22T17:49:21.122Z,12.32
2022-09-22T17:52:08.845Z,6.93
2022-09-22T17:54:59.433Z,9.25
2022-09-22T17:57:31.670Z,11.38
2022-09-22T17:59:59.874Z,9.15
2022-09-22T18:02:32.414Z,9.52
2022-09-22T18:04:59.998Z,9.13
2022-09-22T18:07:27.852Z,8.00
2022-09-22T18:09:55.642Z,8.63
2022-09-22T18:12:25.306Z,8.80
2022-09-22T18:14:55.565Z,10.80
2022-09-22T18:17:25.865Z,8.02
2022-09-22T18:19:57.788Z,8.77
2022-09-22T18:22:27.201Z,8.90
2022-09-22T18:24:56.394Z,6.15
2022-09-22T18:27:27.253Z,8.10
2022-09-22T18:29:58.750Z,10.45
2022-09-22T18:32:27.795Z,8.65
2022-09-22T18:34:56.000Z,6.35
2022-09-22T18:37:27.001Z,7.28
2022-09-22T18:39:54.878Z,6.90
2022-09-22T18:42:24.466Z,9.98
2022-09-22T18:44:52.788Z,7.30
2022-09-22T18:47:23.187Z,8.18
2022-09-22T18:49:54.192Z,6.20
2022-09-22T18:52:24.866Z,7.45
2022-09-22T18:54:54.356Z,7.05
2022-09-22T18:57:25.811Z,17.00
2022-09-22T18:59:54.185Z,9.85
2022-09-22T19:02:23.055Z,8.60
2022-09-22T19:04:54.292Z,13.77
2022-09-22T19:07:43.290Z,4.78
2022-09-22T19:10:13.857Z,4.30
2022-09-22T19:12:41.699Z,3.67
2022-09-22T19:15:18.919Z,6.35
2022-09-22T19:17:49.548Z,6.95
2022-09-22T19:20:22.126Z,5.60
2022-09-22T19:22:50.658Z,6.68
2022-09-22T19:25:20.228Z,8.82
2022-09-22T19:27:47.898Z,6.10
2022-09-22T19:30:17.710Z,7.60
2022-09-22T19:32:48.366Z,6.10
2022-09-22T19:35:15.693Z,6.57
2022-09-22T19:37:43.036Z,5.53
2022-09-22T19:40:13.844Z,10.27
2022-09-22T19:42:41.388Z,3.47
2022-09-22T19:45:09.774Z,8.43
2022-09-22T19:47:39.982Z,7.45
2022-09-22T19:50:08.187Z,8.27
2022-09-22T19:52:36.129Z,5.80
2022-09-22T19:55:04.289Z,7.28
2022-09-22T19:57:40.336Z,8.27
2022-09-22T20:00:18.409Z,8.32
2022-09-22T20:02:46.227Z,9.52
2022-09-22T20:05:20.903Z,9.98
2022-09-22T20:07:49.156Z,9.27
2022-09-22T20:10:19.157Z,9.60
2022-09-22T20:12:46.589Z,8.52
2022-09-22T20:15:15.307Z,6.53
2022-09-22T20:17:46.393Z,6.97
2022-09-22T20:20:20.368Z,10.15
2022-09-22T20:22:50.581Z,6.55
2022-09-22T20:25:27.564Z,8.77
2022-09-22T20:27:56.308Z,7.80
2022-09-22T20:30:24.507Z,9.35
2022-09-22T20:32:52.452Z,7.78
2022-09-22T20:35:22.067Z,7.13
2022-09-22T20:37:51.660Z,6.40
2022-09-22T20:40:21.607Z,7.32
2022-09-22T20:42:50.934Z,7.88
2022-09-22T20:45:21.149Z,6.57
2022-09-22T20:47:49.337Z,8.63
2022-09-22T20:50:17.259Z,10.32
2022-09-22T20:52:44.738Z,10.30
2022-09-22T20:55:12.283Z,8.77
2022-09-22T20:57:41.389Z,9.75
2022-09-22T21:00:09.961Z,11.15
2022-09-22T21:02:37.576Z,10.02
2022-09-22T21:05:05.341Z,8.25
2022-09-22T21:07:33.160Z,8.10
2022-09-22T21:10:19.160Z,8.45
2022-09-22T21:12:46.629Z,8.75
2022-09-22T21:15:14.643Z,7.75
2022-09-22T21:17:43.930Z,6.95
2022-09-22T21:20:11.533Z,7.38
2022-09-22T21:22:39.044Z,10.27
2022-09-22T21:25:06.760Z,9.07
2022-09-22T21:27:34.263Z,9.02
2022-09-22T21:30:01.713Z,8.93
2022-09-22T21:32:29.595Z,8.98
2022-09-22T21:34:57.649Z,7.70
2022-09-22T21:37:25.187Z,7.78
2022-09-22T21:39:52.629Z,7.70
2022-09-22T21:42:20.144Z,7.55
2022-09-22T21:44:48.744Z,9.50
2022-09-22T21:47:16.284Z,8.20
2022-09-22T21:49:43.661Z,9.60
2022-09-22T21:52:10.954Z,9.60
2022-09-22T21:54:38.315Z,8.95
2022-09-22T21:57:05.755Z,9.45
2022-09-22T21:59:33.048Z,8.75
2022-09-22T22:02:00.453Z,9.93
2022-09-22T22:04:27.894Z,8.73
2022-09-22T22:06:56.239Z,8.00
2022-09-22T22:09:25.468Z,7.25
2022-09-22T22:11:59.034Z,9.68
2022-09-22T22:14:32.809Z,7.28
2022-09-22T22:17:02.387Z,7.47
2022-09-22T22:19:30.080Z,7.53
2022-09-22T22:21:57.606Z,6.53
2022-09-22T22:24:29.464Z,7.53
2022-09-22T22:27:01.582Z,7.65
2022-09-22T22:29:34.919Z,7.47
2022-09-22T22:32:04.136Z,7.93
2022-09-22T22:34:31.464Z,7.22
2022-09-22T22:36:59.668Z,7.07
2022-09-22T22:39:27.681Z,10.18
2022-09-22T22:41:55.490Z,3.83
2022-09-22T22:44:22.958Z,6.28
2022-09-22T22:46:50.986Z,9.43
2022-09-22T22:49:18.515Z,8.27
2022-09-22T22:51:46.122Z,10.23
2022-09-22T22:54:14.649Z,8.05
2022-09-22T22:56:43.768Z,4.60
2022-09-22T22:59:13.574Z,6.32
2022-09-22T23:01:41.872Z,8.45
2022-09-22T23:04:11.866Z,8.60
2022-09-22T23:06:44.225Z,8.88
2022-09-22T23:09:16.198Z,6.63
2022-09-22T23:11:45.493Z,6.35
2022-09-22T23:14:13.408Z,6.57
2022-09-22T23:16:46.319Z,6.75
2022-09-22T23:19:17.086Z,7.38
2022-09-22T23:21:45.349Z,6.47
2022-09-22T23:24:19.142Z,6.85
2022-09-22T23:26:47.463Z,11.20
2022-09-22T23:29:14.843Z,17.52
2022-09-22T23:31:42.431Z,13.05
2022-09-22T23:34:09.789Z,7.55
2022-09-22T23:36:37.479Z,7.20
2022-09-22T23:39:05.182Z,10.55
2022-09-22T23:41:34.944Z,32.53
2022-09-22T23:44:03.383Z,9.38
2022-09-22T23:46:31.390Z,7.10
2022-09-22T23:49:00.437Z,5.93
2022-09-22T23:51:27.988Z,14.13
2022-09-22T23:53:55.672Z,11.85
2022-09-22T23:56:23.272Z,15.27
2022-09-22T23:58:51.664Z,14.88
